createdAt,value
2023-01-08T00:01:42.475Z,101190.03
2023-01-08T00:04:11.838Z,101207.09
2023-01-08T00:06:40.228Z,101212.56
2023-01-08T00:09:08.512Z,101232.34
2023-01-08T00:11:36.897Z,101235.22
2023-01-08T00:14:05.349Z,101246.03
2023-01-08T00:16:33.834Z,101255.06
2023-01-08T00:19:02.333Z,101269.50
2023-01-08T00:21:31.058Z,101277.78
2023-01-08T00:23:59.364Z,101277.19
2023-01-08T00:26:27.673Z,101274.16
2023-01-08T00:28:55.994Z,101264.97
2023-01-08T00:31:24.973Z,101271.00
2023-01-08T00:33:53.362Z,101278.97
2023-01-08T00:36:21.656Z,101272.50
2023-01-08T00:38:50.001Z,101280.84
2023-01-08T00:41:18.766Z,101277.66
2023-01-08T00:43:47.125Z,101270.16
2023-01-08T00:46:15.513Z,101286.53
2023-01-08T00:48:43.946Z,101286.94
2023-01-08T00:51:12.409Z,101288.97
2023-01-08T00:53:40.741Z,101309.63
2023-01-08T00:56:11.168Z,101309.06
2023-01-08T00:58:40.033Z,101306.66
2023-01-08T01:01:13.723Z,101305.19
2023-01-08T01:03:43.273Z,101298.41
2023-01-08T01:06:12.820Z,101288.03
2023-01-08T01:08:41.765Z,101279.38
2023-01-08T01:11:12.486Z,101265.28
2023-01-08T01:13:40.841Z,101251.31
2023-01-08T01:16:10.487Z,101246.94
2023-01-08T01:18:38.970Z,101239.09
2023-01-08T01:21:33.602Z,101229.53
2023-01-08T01:24:04.239Z,101240.22
2023-01-08T01:26:33.413Z,101245.56
2023-01-08T01:29:02.312Z,101262.34
2023-01-08T01:31:32.889Z,101279.25
2023-01-08T01:34:01.535Z,101266.97
2023-01-08T01:36:30.128Z,101252.94
2023-01-08T01:39:02.679Z,101201.72
2023-01-08T01:41:33.970Z,101130.44
2023-01-08T01:44:33.961Z,101043.03
2023-01-08T01:47:48.244Z,101053.81
2023-01-08T01:50:31.133Z,101052.31
2023-01-08T01:52:59.503Z,101076.28
2023-01-08T01:55:29.212Z,101083.50
2023-01-08T01:58:12.882Z,101095.91
2023-01-08T02:00:42.445Z,101073.94
2023-01-08T02:03:13.981Z,101085.41
2023-01-08T02:05:45.209Z,101088.06
2023-01-08T02:08:18.793Z,101087.03
2023-01-08T02:10:53.052Z,101099.34
2023-01-08T02:13:32.402Z,101092.31
2023-01-08T02:16:26.823Z,101102.00
2023-01-08T02:19:02.009Z,101093.13
2023-01-08T02:21:38.983Z,101099.28
2023-01-08T02:24:54.003Z,101105.41
2023-01-08T02:27:25.645Z,101094.72
2023-01-08T02:29:56.098Z,101078.72
2023-01-08T02:32:28.225Z,101091.03
2023-01-08T02:34:57.370Z,101084.84
2023-01-08T02:37:26.482Z,101109.56
2023-01-08T02:39:54.737Z,101116.50
2023-01-08T02:42:48.745Z,101117.47
2023-01-08T02:45:23.131Z,101106.81
2023-01-08T02:47:56.867Z,101106.75
2023-01-08T02:51:04.384Z,101102.25
2023-01-08T02:53:48.586Z,101092.56
2023-01-08T02:56:22.291Z,101075.78
2023-01-08T02:58:54.144Z,101088.09
2023-01-08T03:01:25.437Z,101080.97
2023-01-08T03:04:17.037Z,101073.00
2023-01-08T03:06:46.629Z,101082.75
2023-01-08T03:09:17.173Z,101077.44
2023-01-08T03:12:10.446Z,101089.78
2023-01-08T03:14:57.172Z,101095.03
2023-01-08T03:17:37.007Z,101082.63
2023-01-08T03:20:11.758Z,101063.94
2023-01-08T03:22:42.924Z,101053.19
2023-01-08T03:25:13.517Z,101031.84
2023-01-08T03:27:46.807Z,101030.84
2023-01-08T03:30:17.371Z,101006.03
2023-01-08T03:32:48.245Z,101019.28
2023-01-08T03:35:21.531Z,101032.44
2023-01-08T03:37:59.937Z,101020.06
2023-01-08T03:40:36.203Z,101032.41
2023-01-08T03:43:04.869Z,101027.97
2023-01-08T03:45:34.322Z,101009.34
2023-01-08T03:48:05.823Z,101024.31
2023-01-08T03:50:35.198Z,101056.06
2023-01-08T03:53:03.608Z,101059.44
2023-01-08T03:55:31.924Z,101060.25
2023-01-08T03:58:00.263Z,101039.72
2023-01-08T04:00:28.562Z,101031.69
2023-01-08T04:02:57.074Z,101050.13
2023-01-08T04:05:26.200Z,101055.31
2023-01-08T04:07:57.838Z,101063.28
2023-01-08T04:10:27.444Z,101058.03
2023-01-08T04:12:55.923Z,101048.44
2023-01-08T04:15:24.250Z,101074.16
2023-01-08T04:17:55.763Z,101079.66
2023-01-08T04:20:24.224Z,101072.78
2023-01-08T04:22:52.684Z,101059.88
2023-01-08T04:25:21.078Z,101046.88
2023-01-08T04:27:49.535Z,101040.00
2023-01-08T04:30:17.999Z,101047.22
2023-01-08T04:32:46.342Z,101027.03
2023-01-08T04:35:14.756Z,101027.16
2023-01-08T04:37:43.134Z,100996.28
2023-01-08T04:40:12.726Z,101014.91
2023-01-08T04:42:41.049Z,101007.88
2023-01-08T04:45:10.327Z,101011.31
2023-01-08T04:47:38.764Z,100997.16
2023-01-08T04:50:07.609Z,100983.88
2023-01-08T04:52:36.118Z,101001.63
2023-01-08T04:55:04.874Z,100984.84
2023-01-08T04:57:33.203Z,100975.97
2023-01-08T05:00:01.525Z,100984.78
2023-01-08T05:02:30.639Z,100978.50
2023-01-08T05:04:59.332Z,100987.31
2023-01-08T05:07:28.147Z,100963.44
2023-01-08T05:09:56.614Z,100962.44
2023-01-08T05:12:25.058Z,100974.78
2023-01-08T05:14:53.565Z,100976.63
2023-01-08T05:17:21.897Z,100982.81
2023-01-08T05:19:50.323Z,100974.03
2023-01-08T05:22:18.696Z,100969.63
2023-01-08T05:24:47.028Z,100969.63
2023-01-08T05:27:15.304Z,100952.94
2023-01-08T05:29:43.650Z,100958.25
2023-01-08T05:32:19.993Z,100963.56
2023-01-08T05:34:48.298Z,100959.13
2023-01-08T05:37:16.767Z,100949.31
2023-01-08T05:39:45.136Z,100938.63
2023-01-08T05:42:13.429Z,100941.19
2023-01-08T05:44:41.865Z,100933.19
2023-01-08T05:47:10.315Z,100921.72
2023-01-08T05:49:38.687Z,100927.91
2023-01-08T05:52:07.124Z,100920.06
2023-01-08T05:54:35.504Z,100924.50
2023-01-08T05:57:03.975Z,100932.47
2023-01-08T05:59:32.453Z,100900.75
2023-01-08T06:02:00.946Z,100874.31
2023-01-08T06:04:29.638Z,100863.03
2023-01-08T06:06:58.049Z,100858.84
2023-01-08T06:09:26.360Z,100873.09
2023-01-08T06:11:54.876Z,100898.88
2023-01-08T06:14:23.284Z,100910.50
2023-01-08T06:16:51.791Z,100903.47
2023-01-08T06:19:20.169Z,100907.03
2023-01-08T06:21:48.565Z,100938.78
2023-01-08T06:24:16.894Z,100910.50
2023-01-08T06:26:45.191Z,100880.41
2023-01-08T06:29:13.580Z,100871.50
2023-01-08T06:31:41.996Z,100860.94
2023-01-08T06:34:10.374Z,100881.25
2023-01-08T06:36:38.820Z,100903.31
2023-01-08T06:39:08.330Z,100908.63
2023-01-08T06:41:36.766Z,100915.72
2023-01-08T06:44:05.214Z,100913.00
2023-01-08T06:46:33.785Z,100900.66
2023-01-08T06:49:02.221Z,100905.97
2023-01-08T06:51:30.602Z,100922.81
2023-01-08T06:53:59.005Z,100905.19
2023-01-08T06:56:27.489Z,100924.66
2023-01-08T06:58:55.970Z,100898.16
2023-01-08T07:01:24.928Z,100874.31
2023-01-08T07:03:53.525Z,100858.38
2023-01-08T07:06:23.650Z,100830.09
2023-01-08T07:08:52.251Z,100843.41
2023-01-08T07:11:20.611Z,100846.91
2023-01-08T07:13:48.978Z,100821.28
2023-01-08T07:16:17.458Z,100844.28
2023-01-08T07:18:46.055Z,100840.81
2023-01-08T07:21:14.821Z,100831.97
2023-01-08T07:23:43.174Z,100823.09
2023-01-08T07:26:11.607Z,100783.28
2023-01-08T07:28:39.964Z,100808.03
2023-01-08T07:31:08.736Z,100813.41
2023-01-08T07:33:38.167Z,100793.06
2023-01-08T07:36:07.378Z,100795.63
2023-01-08T07:38:35.969Z,100790.31
2023-01-08T07:41:05.452Z,100802.59
2023-01-08T07:43:33.844Z,100801.72
2023-01-08T07:46:04.901Z,100867.13
2023-01-08T07:48:33.783Z,100863.56
2023-01-08T07:51:03.685Z,100839.59
2023-01-08T07:53:32.129Z,100840.41
2023-01-08T07:56:05.683Z,100828.09
2023-01-08T07:58:35.197Z,100834.34
2023-01-08T08:01:04.027Z,100830.88
2023-01-08T08:03:32.874Z,100825.66
2023-01-08T08:06:02.221Z,100836.34
2023-01-08T08:08:30.641Z,100844.41
2023-01-08T08:10:59.027Z,100823.28
2023-01-08T08:13:27.471Z,100832.22
2023-01-08T08:15:55.979Z,100833.22
2023-01-08T08:18:24.350Z,100854.53
2023-01-08T08:20:52.978Z,100864.22
2023-01-08T08:23:21.412Z,100873.22
2023-01-08T08:25:49.890Z,100852.97
2023-01-08T08:28:18.222Z,100876.84
2023-01-08T08:30:46.670Z,100885.59
2023-01-08T08:33:15.349Z,100904.03
2023-01-08T08:35:51.179Z,100926.91
2023-01-08T08:38:21.093Z,100946.31
2023-01-08T08:40:50.993Z,100951.59
2023-01-08T08:43:19.333Z,100962.97
2023-01-08T08:45:47.817Z,100967.28
2023-01-08T08:48:17.898Z,100982.25
2023-01-08T08:50:46.343Z,100997.97
2023-01-08T08:53:14.697Z,100989.84
2023-01-08T08:55:43.165Z,101014.44
2023-01-08T08:58:14.336Z,101036.66
2023-01-08T09:00:44.470Z,101057.91
2023-01-08T09:03:15.835Z,101040.22
2023-01-08T09:05:44.434Z,101048.19
2023-01-08T09:08:13.890Z,101048.19
2023-01-08T09:10:45.873Z,101033.94
2023-01-08T09:13:14.364Z,101016.13
2023-01-08T09:15:42.768Z,101026.81
2023-01-08T09:18:11.769Z,101023.31
2023-01-08T09:20:40.254Z,101026.81
2023-01-08T09:23:08.733Z,101004.72
2023-01-08T09:25:37.456Z,101022.47
2023-01-08T09:28:09.210Z,101034.78
2023-01-08T09:30:37.690Z,101043.56
2023-01-08T09:33:07.448Z,101047.06
2023-01-08T09:35:35.952Z,101050.63
2023-01-08T09:38:04.382Z,101069.25
2023-01-08T09:41:01.374Z,101076.28
2023-01-08T09:43:32.737Z,101076.25
2023-01-08T09:46:03.897Z,101080.63
2023-01-08T09:48:37.042Z,101090.38
2023-01-08T09:51:06.432Z,101108.91
2023-01-08T09:53:34.966Z,101085.94
2023-01-08T09:56:10.602Z,101100.19
2023-01-08T09:58:41.373Z,101094.94
2023-01-08T10:01:16.842Z,101095.78
2023-01-08T10:03:47.631Z,101087.81
2023-01-08T10:06:17.553Z,101104.53
2023-01-08T10:08:46.775Z,101102.69
2023-01-08T10:11:17.378Z,101116.78
2023-01-08T10:13:52.089Z,101125.50
2023-01-08T10:16:42.610Z,101123.66
2023-01-08T10:19:11.471Z,101139.56
2023-01-08T10:21:42.493Z,101161.59
2023-01-08T10:24:10.965Z,101183.69
2023-01-08T10:26:40.481Z,101161.59
2023-01-08T10:29:27.161Z,101174.81
2023-01-08T10:32:02.328Z,101173.00
2023-01-08T10:34:42.328Z,101185.28
2023-01-08T10:37:30.445Z,101173.69
2023-01-08T10:40:18.976Z,101184.25
2023-01-08T10:42:48.248Z,101185.88
2023-01-08T10:45:24.409Z,101200.84
2023-01-08T10:48:00.686Z,101214.94
2023-01-08T10:50:32.070Z,101203.47
2023-01-08T10:53:06.422Z,101216.72
2023-01-08T10:55:40.735Z,101224.69
2023-01-08T10:58:12.089Z,101226.34
2023-01-08T11:00:41.046Z,101229.88
2023-01-08T11:03:22.178Z,101239.56
2023-01-08T11:05:51.125Z,101253.66
2023-01-08T11:08:23.303Z,101249.13
2023-01-08T11:11:00.248Z,101256.19
2023-01-08T11:13:30.966Z,101257.03
2023-01-08T11:16:11.521Z,101249.06
2023-01-08T11:18:50.989Z,101252.59
2023-01-08T11:21:26.181Z,101256.13
2023-01-08T11:24:06.666Z,101257.03
2023-01-08T11:26:37.227Z,101250.81
2023-01-08T11:29:19.449Z,101249.03
2023-01-08T11:32:01.515Z,101263.09
2023-01-08T11:35:00.108Z,101251.63
2023-01-08T11:37:32.053Z,101249.94
2023-01-08T11:40:00.567Z,101253.47
2023-01-08T11:42:37.699Z,101262.28
2023-01-08T11:45:20.739Z,101262.34
2023-01-08T11:47:49.054Z,101257.03
2023-01-08T11:50:36.572Z,101249.06
2023-01-08T11:53:38.313Z,101255.25
2023-01-08T11:56:21.325Z,101257.91
2023-01-08T11:59:12.713Z,101261.44
2023-01-08T12:02:18.037Z,101271.25
2023-01-08T12:04:49.536Z,101277.53
2023-01-08T12:07:26.329Z,101290.78
2023-01-08T12:10:06.636Z,101298.75
2023-01-08T12:13:07.775Z,101299.63
2023-01-08T12:15:50.189Z,101289.06
2023-01-08T12:18:36.731Z,101300.63
2023-01-08T12:21:07.941Z,101291.84
2023-01-08T12:24:07.290Z,101292.81
2023-01-08T12:27:07.237Z,101301.75
2023-01-08T12:29:44.393Z,101313.34
2023-01-08T12:32:38.645Z,101325.75
2023-01-08T12:35:19.431Z,101325.00
2023-01-08T12:38:00.155Z,101327.78
2023-01-08T12:40:46.332Z,101323.53
2023-01-08T12:43:32.551Z,101315.66
2023-01-08T12:46:03.953Z,101319.19
2023-01-08T12:48:37.372Z,101319.25
2023-01-08T12:51:20.094Z,101337.88
2023-01-08T12:54:34.465Z,101349.34
2023-01-08T12:58:00.905Z,101353.81
2023-01-08T13:00:37.869Z,101361.84
2023-01-08T13:03:13.049Z,101373.31
2023-01-08T13:05:43.151Z,101382.22
2023-01-08T13:08:33.542Z,101387.59
2023-01-08T13:11:03.148Z,101395.59
2023-01-08T13:13:34.658Z,101394.72
2023-01-08T13:16:21.345Z,101400.88
2023-01-08T13:18:57.232Z,101410.63
2023-01-08T13:21:44.554Z,101417.72
2023-01-08T13:24:32.537Z,101425.56
2023-01-08T13:27:18.970Z,101428.13
2023-01-08T13:29:50.511Z,101435.22
2023-01-08T13:32:46.813Z,101438.75
2023-01-08T13:35:18.655Z,101443.22
2023-01-08T13:37:52.566Z,101445.91
2023-01-08T13:40:39.616Z,101452.19
2023-01-08T13:43:14.790Z,101446.06
2023-01-08T13:45:45.083Z,101451.38
2023-01-08T13:48:30.110Z,101461.97
2023-01-08T13:50:58.134Z,101463.75
2023-01-08T13:53:27.251Z,101479.56
2023-01-08T13:56:00.117Z,101474.19
2023-01-08T13:58:35.573Z,101481.25
2023-01-08T14:01:06.182Z,101489.22
2023-01-08T14:03:39.730Z,101481.34
2023-01-08T14:06:16.597Z,101485.84
2023-01-08T14:08:59.764Z,101485.00
2023-01-08T14:11:51.579Z,101476.22
2023-01-08T14:14:22.988Z,101480.66
2023-01-08T14:16:53.273Z,101477.13
2023-01-08T14:19:27.229Z,101484.19
2023-01-08T14:21:58.979Z,101487.75
2023-01-08T14:24:27.899Z,101489.56
2023-01-08T14:26:59.258Z,101488.78
2023-01-08T14:29:33.944Z,101490.59
2023-01-08T14:32:02.352Z,101495.94
2023-01-08T14:34:33.210Z,101499.47
2023-01-08T14:37:02.010Z,101498.59
2023-01-08T14:39:37.235Z,101495.16
2023-01-08T14:42:41.849Z,101506.72
2023-01-08T14:45:23.768Z,101506.78
2023-01-08T14:47:55.570Z,101496.28
2023-01-08T14:50:33.372Z,101506.03
2023-01-08T14:53:27.465Z,101511.34
2023-01-08T14:55:58.129Z,101517.56
2023-01-08T14:58:30.017Z,101519.31
2023-01-08T15:01:04.123Z,101516.69
2023-01-08T15:03:48.898Z,101520.25
2023-01-08T15:06:32.692Z,101518.47
2023-01-08T15:09:02.147Z,101515.81
2023-01-08T15:11:32.860Z,101514.13
2023-01-08T15:14:01.357Z,101536.22
2023-01-08T15:16:43.491Z,101546.88
2023-01-08T15:19:23.454Z,101560.09
2023-01-08T15:21:54.334Z,101564.50
2023-01-08T15:25:02.172Z,101568.06
2023-01-08T15:27:38.012Z,101567.16
2023-01-08T15:30:10.171Z,101574.22
2023-01-08T15:32:40.086Z,101580.41
2023-01-08T15:35:17.018Z,101578.59
2023-01-08T15:37:45.637Z,101585.59
2023-01-08T15:40:14.968Z,101578.50
2023-01-08T15:43:03.608Z,101571.38
2023-01-08T15:45:33.379Z,101570.47
2023-01-08T15:48:02.326Z,101573.06
2023-01-08T15:50:37.720Z,101573.88
2023-01-08T15:53:09.054Z,101572.03
2023-01-08T15:55:38.530Z,101586.00
2023-01-08T15:58:06.968Z,101582.28
2023-01-08T16:00:35.290Z,101584.84
2023-01-08T16:03:08.251Z,101589.13
2023-01-08T16:05:37.856Z,101588.13
2023-01-08T16:08:06.927Z,101594.22
2023-01-08T16:10:35.804Z,101592.34
2023-01-08T16:13:04.288Z,101582.56
2023-01-08T16:15:32.749Z,101580.66
2023-01-08T16:18:01.333Z,101581.34
2023-01-08T16:20:29.702Z,101584.69
2023-01-08T16:22:58.189Z,101582.75
2023-01-08T16:25:26.654Z,101581.75
2023-01-08T16:27:54.980Z,101579.88
2023-01-08T16:30:23.510Z,101586.91
2023-01-08T16:32:53.605Z,101588.66
2023-01-08T16:35:23.098Z,101590.44
2023-01-08T16:37:51.452Z,101589.53
2023-01-08T16:40:20.266Z,101602.78
2023-01-08T16:42:48.571Z,101595.72
2023-01-08T16:45:17.049Z,101599.28
2023-01-08T16:47:45.371Z,101607.25
2023-01-08T16:50:13.709Z,101614.28
2023-01-08T16:52:42.909Z,101617.78
2023-01-08T16:55:12.093Z,101625.69
2023-01-08T16:57:40.561Z,101631.81
2023-01-08T17:00:10.013Z,101632.69
2023-01-08T17:02:39.195Z,101638.00
2023-01-08T17:05:08.251Z,101652.16
2023-01-08T17:07:36.573Z,101638.88
2023-01-08T17:10:05.630Z,101645.97
2023-01-08T17:12:33.936Z,101640.66
2023-01-08T17:15:02.967Z,101649.50
2023-01-08T17:17:31.439Z,101641.47
2023-01-08T17:19:59.813Z,101642.34
2023-01-08T17:22:28.212Z,101644.91
2023-01-08T17:24:56.564Z,101643.94
2023-01-08T17:27:25.230Z,101656.31
2023-01-08T17:29:55.954Z,101653.59
2023-01-08T17:32:24.408Z,101657.97
2023-01-08T17:34:52.772Z,101658.81
2023-01-08T17:37:21.210Z,101671.09
2023-01-08T17:39:50.307Z,101664.81
2023-01-08T17:42:30.469Z,101670.94
2023-01-08T17:45:06.491Z,101672.53
2023-01-08T17:47:36.047Z,101668.88
2023-01-08T17:50:06.618Z,101671.38
2023-01-08T17:52:34.957Z,101665.00
2023-01-08T17:55:03.337Z,101671.97
2023-01-08T17:57:32.534Z,101675.41
2023-01-08T18:00:01.113Z,101675.28
2023-01-08T18:02:29.622Z,101672.47
2023-01-08T18:04:57.924Z,101680.34
2023-01-08T18:07:26.222Z,101680.22
2023-01-08T18:09:55.307Z,101684.53
2023-01-08T18:12:23.684Z,101670.25
2023-01-08T18:14:51.993Z,101666.50
2023-01-08T18:17:20.244Z,101670.88
2023-01-08T18:19:49.708Z,101669.91
2023-01-08T18:22:18.308Z,101672.53
2023-01-08T18:24:46.652Z,101673.34
2023-01-08T18:27:14.949Z,101666.97
2023-01-08T18:29:43.550Z,101664.19
2023-01-08T18:32:11.939Z,101658.81
2023-01-08T18:34:41.492Z,101661.41
2023-01-08T18:37:10.145Z,101669.28
2023-01-08T18:39:38.636Z,101669.28
2023-01-08T18:42:25.533Z,101680.69
2023-01-08T18:44:57.853Z,101677.91
2023-01-08T18:47:29.849Z,101684.03
2023-01-08T18:50:00.773Z,101675.97
2023-01-08T18:52:29.111Z,101680.31
2023-01-08T18:54:58.646Z,101679.38
2023-01-08T18:57:27.613Z,101676.66
2023-01-08T18:59:56.086Z,101674.84
2023-01-08T19:02:31.928Z,101679.13
2023-01-08T19:05:00.414Z,101657.66
2023-01-08T19:07:28.874Z,101649.47
2023-01-08T19:09:57.927Z,101657.28
2023-01-08T19:12:29.054Z,101659.81
2023-01-08T19:14:57.530Z,101649.06
2023-01-08T19:17:26.172Z,101655.94
2023-01-08T19:19:54.478Z,101646.91
2023-01-08T19:22:27.587Z,101636.16
2023-01-08T19:24:57.477Z,101638.78
2023-01-08T19:27:26.314Z,101646.72
2023-01-08T19:29:54.827Z,101636.88
2023-01-08T19:32:23.169Z,101622.47
2023-01-08T19:34:51.629Z,101624.00
2023-01-08T19:37:20.225Z,101626.41
2023-01-08T19:39:48.645Z,101621.75
2023-01-08T19:42:35.459Z,101618.97
2023-01-08T19:45:03.934Z,101615.34
2023-01-08T19:47:32.231Z,101612.50
2023-01-08T19:50:00.580Z,101599.88
2023-01-08T19:52:29.329Z,101595.31
2023-01-08T19:54:59.167Z,101587.25
2023-01-08T19:57:27.625Z,101583.66
2023-01-08T19:59:55.928Z,101579.13
2023-01-08T20:02:24.666Z,101583.28
2023-01-08T20:04:53.168Z,101568.66
2023-01-08T20:07:21.531Z,101565.72
2023-01-08T20:09:49.858Z,101568.16
2023-01-08T20:12:18.237Z,101557.47
2023-01-08T20:14:46.634Z,101552.16
2023-01-08T20:17:15.068Z,101549.53
2023-01-08T20:19:43.452Z,101537.19
2023-01-08T20:22:11.934Z,101534.53
2023-01-08T20:24:40.426Z,101537.19
2023-01-08T20:27:08.874Z,101531.69
2023-01-08T20:29:37.651Z,101542.28
2023-01-08T20:32:07.032Z,101537.72
2023-01-08T20:34:35.333Z,101538.50
2023-01-08T20:37:09.293Z,101532.84
2023-01-08T20:39:37.686Z,101532.50
2023-01-08T20:42:06.353Z,101532.25
2023-01-08T20:44:34.973Z,101533.00
2023-01-08T20:47:03.784Z,101533.88
2023-01-08T20:49:32.167Z,101520.63
2023-01-08T20:52:00.900Z,101511.75
2023-01-08T20:54:31.128Z,101519.69
2023-01-08T20:57:00.870Z,101520.63
2023-01-08T20:59:29.852Z,101510.75
2023-01-08T21:01:58.256Z,101513.31
2023-01-08T21:04:26.740Z,101502.56
2023-01-08T21:06:55.312Z,101502.47
2023-01-08T21:09:23.993Z,101499.72
2023-01-08T21:11:52.354Z,101505.91
2023-01-08T21:14:20.849Z,101506.66
2023-01-08T21:16:49.329Z,101494.09
2023-01-08T21:19:17.850Z,101491.38
2023-01-08T21:21:46.814Z,101489.56
2023-01-08T21:24:15.489Z,101488.66
2023-01-08T21:26:46.696Z,101490.41
2023-01-08T21:29:17.374Z,101487.72
2023-01-08T21:31:45.868Z,101490.22
2023-01-08T21:34:14.816Z,101479.38
2023-01-08T21:36:43.205Z,101468.72
2023-01-08T21:39:12.431Z,101479.38
2023-01-08T21:41:59.338Z,101468.59
2023-01-08T21:44:46.620Z,101459.25
2023-01-08T21:47:18.195Z,101457.69
2023-01-08T21:49:47.017Z,101453.00
2023-01-08T21:52:34.820Z,101459.03
2023-01-08T21:55:04.068Z,101452.91
2023-01-08T21:57:38.667Z,101455.56
2023-01-08T22:00:07.150Z,101443.72
2023-01-08T22:02:35.609Z,101438.91
2023-01-08T22:05:05.010Z,101441.41
2023-01-08T22:07:33.848Z,101441.28
2023-01-08T22:10:02.186Z,101422.09
2023-01-08T22:12:30.928Z,101421.56
2023-01-08T22:14:59.450Z,101424.34
2023-01-08T22:17:31.406Z,101437.03
2023-01-08T22:20:01.201Z,101434.56
2023-01-08T22:22:30.176Z,101427.66
2023-01-08T22:24:58.570Z,101430.56
2023-01-08T22:27:26.915Z,101431.63
2023-01-08T22:29:55.499Z,101433.69
2023-01-08T22:32:23.772Z,101431.97
2023-01-08T22:34:52.268Z,101427.59
2023-01-08T22:37:22.625Z,101435.63
2023-01-08T22:39:50.980Z,101438.28
2023-01-08T22:42:19.319Z,101426.72
2023-01-08T22:44:49.865Z,101427.59
2023-01-08T22:47:18.312Z,101435.63
2023-01-08T22:49:46.791Z,101424.13
2023-01-08T22:52:15.350Z,101426.81
2023-01-08T22:54:43.811Z,101423.31
2023-01-08T22:57:12.220Z,101414.44
2023-01-08T22:59:40.557Z,101402.19
2023-01-08T23:02:09.035Z,101411.31
2023-01-08T23:04:37.383Z,101413.31
2023-01-08T23:07:05.843Z,101425.78
2023-01-08T23:09:34.175Z,101426.59
2023-01-08T23:12:02.738Z,101438.16
2023-01-08T23:14:31.128Z,101436.44
2023-01-08T23:16:59.616Z,101443.50
2023-01-08T23:19:29.163Z,101449.81
2023-01-08T23:21:57.491Z,101447.22
2023-01-08T23:24:26.177Z,101442.88
2023-01-08T23:26:54.948Z,101443.97
2023-01-08T23:29:23.772Z,101434.41
2023-01-08T23:31:52.103Z,101440.75
2023-01-08T23:34:20.554Z,101432.97
2023-01-08T23:36:49.009Z,101432.22
2023-01-08T23:39:17.492Z,101438.63
2023-01-08T23:41:45.971Z,101432.53
2023-01-08T23:44:17.048Z,101427.25
2023-01-08T23:46:45.386Z,101421.06
2023-01-08T23:49:13.874Z,101412.34
2023-01-08T23:51:43.612Z,101408.78
2023-01-08T23:54:12.962Z,101402.63
2023-01-08T23:56:42.392Z,101389.38
2023-01-08T23:59:11.572Z,101391.25
